Time;durP1;ratioP1;P1;durP2;ratioP2;P2;SDS_P1;SDS_P2;PMS_P1;PMS_P2;Temp;Humidity;BMP_temperature;BMP_pressure;BME280_temperature;BME280_humidity;BME280_pressure;Samples;Min_cycle;Max_cycle;Signal;HPM_P1;HPM_P2
2024/01/07 00:00:36;;;;;;;67.15;31.60;;;;;;;;;;6076511;23;20034;-80
2024/01/07 00:03:04;;;;;;;74.38;32.65;;;;;;;;;;6075094;23;20027;-81
2024/01/07 00:05:32;;;;;;;73.30;32.47;;;;;;;;;;6073853;23;20027;-82
2024/01/07 00:07:59;;;;;;;75.72;32.42;;;;;;;;;;6072808;23;20086;-80
2024/01/07 00:10:25;;;;;;;76.72;31.80;;;;;;;;;;6095299;23;20032;-81
2024/01/07 00:12:52;;;;;;;72.63;33.10;;;;;;;;;;6130854;23;20022;-82
2024/01/07 00:15:18;;;;;;;69.82;31.58;;;;;;;;;;6131338;23;20403;-83
2024/01/07 00:17:44;;;;;;;72.10;31.85;;;;;;;;;;6131646;23;20076;-82
2024/01/07 00:20:19;;;;;;;74.85;32.95;;;;;;;;;;6130615;23;20026;-83
2024/01/07 00:22:46;;;;;;;70.88;31.45;;;;;;;;;;6132214;23;20026;-83
2024/01/07 00:25:12;;;;;;;74.75;31.90;;;;;;;;;;6129718;23;20351;-83
2024/01/07 00:27:39;;;;;;;63.63;30.38;;;;;;;;;;6128815;23;20068;-83
2024/01/07 00:30:06;;;;;;;68.72;30.40;;;;;;;;;;6128030;23;20506;-83
2024/01/07 00:32:33;;;;;;;69.38;29.50;;;;;;;;;;6130065;23;20057;-84
2024/01/07 00:34:59;;;;;;;66.82;30.90;;;;;;;;;;6128433;23;20026;-83
2024/01/07 00:37:27;;;;;;;66.43;28.75;;;;;;;;;;6129355;23;20026;-84
2024/01/07 00:39:53;;;;;;;64.38;29.27;;;;;;;;;;6127423;23;20098;-83
2024/01/07 00:42:20;;;;;;;59.60;28.13;;;;;;;;;;6129125;23;20545;-83
2024/01/07 00:44:46;;;;;;;69.38;29.27;;;;;;;;;;6129230;23;20033;-84
2024/01/07 00:47:12;;;;;;;61.08;28.77;;;;;;;;;;6128996;23;20053;-83
2024/01/07 00:49:40;;;;;;;64.45;28.63;;;;;;;;;;6131539;23;20033;-83
2024/01/07 00:52:06;;;;;;;65.35;27.85;;;;;;;;;;6135569;23;20022;-84
2024/01/07 00:54:34;;;;;;;59.55;26.63;;;;;;;;;;6137119;23;20022;-83
2024/01/07 00:57:00;;;;;;;61.13;26.65;;;;;;;;;;6135827;23;20065;-85
2024/01/07 00:59:29;;;;;;;59.00;26.38;;;;;;;;;;6134855;23;20026;-84
2024/01/07 01:01:55;;;;;;;63.13;27.50;;;;;;;;;;6134655;23;20108;-83
2024/01/07 01:04:21;;;;;;;54.95;26.63;;;;;;;;;;6133513;23;20045;-83
2024/01/07 01:06:48;;;;;;;57.10;25.27;;;;;;;;;;6130193;23;20033;-81
2024/01/07 01:09:14;;;;;;;55.00;26.20;;;;;;;;;;6129071;23;20360;-83
2024/01/07 01:11:42;;;;;;;54.83;25.70;;;;;;;;;;6129087;23;20058;-83
2024/01/07 01:14:08;;;;;;;55.80;25.80;;;;;;;;;;6128738;23;20328;-83
2024/01/07 01:16:35;;;;;;;53.90;25.73;;;;;;;;;;6128422;23;20053;-82
2024/01/07 01:19:01;;;;;;;55.63;25.83;;;;;;;;;;6127721;23;20077;-83
2024/01/07 01:21:27;;;;;;;47.17;22.17;;;;;;;;;;6126641;23;20026;-83
2024/01/07 01:23:55;;;;;;;50.65;22.77;;;;;;;;;;6139177;23;20022;-83
2024/01/07 01:26:21;;;;;;;41.67;20.90;;;;;;;;;;6136075;23;20046;-84
2024/01/07 01:28:49;;;;;;;40.03;19.67;;;;;;;;;;6135392;23;20026;-84
2024/01/07 01:31:15;;;;;;;39.40;20.00;;;;;;;;;;6135420;23;20076;-84
2024/01/07 01:33:41;;;;;;;39.15;19.33;;;;;;;;;;6135714;23;20018;-83
2024/01/07 01:36:08;;;;;;;38.05;18.77;;;;;;;;;;6135884;23;20072;-83
2024/01/07 01:38:35;;;;;;;35.72;18.48;;;;;;;;;;6136634;23;20064;-84
2024/01/07 01:41:01;;;;;;;37.22;18.63;;;;;;;;;;6135519;23;20060;-82
2024/01/07 01:43:28;;;;;;;33.72;17.92;;;;;;;;;;6134547;23;20411;-82
2024/01/07 01:45:56;;;;;;;29.42;16.08;;;;;;;;;;6133936;23;20482;-82
2024/01/07 01:48:23;;;;;;;32.47;15.88;;;;;;;;;;6134382;23;20025;-82
2024/01/07 01:50:49;;;;;;;32.35;17.20;;;;;;;;;;6134748;23;20089;-82
2024/01/07 01:53:16;;;;;;;32.78;17.45;;;;;;;;;;6135715;23;20018;-82
2024/01/07 01:55:43;;;;;;;31.90;17.25;;;;;;;;;;6135216;23;20057;-84
2024/01/07 01:58:12;;;;;;;33.60;18.30;;;;;;;;;;6135826;23;20030;-83
2024/01/07 02:00:39;;;;;;;33.63;18.00;;;;;;;;;;6134390;23;20065;-84
2024/01/07 02:03:06;;;;;;;31.92;16.73;;;;;;;;;;6133709;23;20463;-83
2024/01/07 02:05:33;;;;;;;31.55;17.95;;;;;;;;;;6135404;23;20049;-84
2024/01/07 02:08:00;;;;;;;32.83;18.08;;;;;;;;;;6136559;23;20057;-84
2024/01/07 02:10:27;;;;;;;30.95;16.45;;;;;;;;;;6138814;23;20037;-83
2024/01/07 02:12:53;;;;;;;30.40;16.83;;;;;;;;;;6139571;23;20030;-84
2024/01/07 02:15:20;;;;;;;34.90;17.70;;;;;;;;;;6140344;23;20025;-84
2024/01/07 02:17:46;;;;;;;33.88;17.60;;;;;;;;;;6141240;23;20056;-83
2024/01/07 02:20:14;;;;;;;33.85;17.67;;;;;;;;;;6141792;23;20056;-85
2024/01/07 02:22:40;;;;;;;31.13;17.02;;;;;;;;;;6142137;23;20063;-84
2024/01/07 02:25:08;;;;;;;31.05;16.95;;;;;;;;;;6144194;23;20026;-84
2024/01/07 02:27:35;;;;;;;33.70;18.45;;;;;;;;;;6150449;23;20030;-84
2024/01/07 02:30:01;;;;;;;32.95;18.30;;;;;;;;;;6149578;23;20021;-84
2024/01/07 02:32:28;;;;;;;34.92;18.23;;;;;;;;;;6144408;23;20131;-84
2024/01/07 02:34:54;;;;;;;33.88;17.83;;;;;;;;;;6132982;23;20029;-84
2024/01/07 02:37:20;;;;;;;38.38;20.08;;;;;;;;;;6134392;23;20080;-84
2024/01/07 02:39:47;;;;;;;35.67;19.92;;;;;;;;;;6132992;23;20025;-83
2024/01/07 02:42:15;;;;;;;36.65;20.45;;;;;;;;;;6135091;23;20065;-82
2024/01/07 02:44:41;;;;;;;34.13;18.98;;;;;;;;;;6138053;23;20037;-83
2024/01/07 02:47:07;;;;;;;34.17;19.38;;;;;;;;;;6140056;23;20061;-81
2024/01/07 02:49:34;;;;;;;33.45;18.30;;;;;;;;;;6132507;23;20159;-83
2024/01/07 02:52:00;;;;;;;36.85;19.65;;;;;;;;;;6132293;23;20026;-83
2024/01/07 02:54:26;;;;;;;35.08;20.30;;;;;;;;;;6131188;23;20076;-83
2024/01/07 02:56:53;;;;;;;34.95;19.52;;;;;;;;;;6132328;23;20065;-83
2024/01/07 02:59:21;;;;;;;31.35;17.58;;;;;;;;;;6135227;23;20041;-83
2024/01/07 03:01:47;;;;;;;32.63;18.60;;;;;;;;;;6151180;23;20014;-83
2024/01/07 03:04:15;;;;;;;37.13;19.42;;;;;;;;;;6150763;23;20006;-83
2024/01/07 03:06:41;;;;;;;33.92;18.23;;;;;;;;;;6119066;23;20017;-82
2024/01/07 03:09:09;;;;;;;31.02;17.38;;;;;;;;;;6136791;23;20026;-83
2024/01/07 03:11:39;;;;;;;32.80;17.38;;;;;;;;;;6137946;23;20032;-83
2024/01/07 03:14:06;;;;;;;33.70;19.15;;;;;;;;;;6137239;23;20033;-82
2024/01/07 03:16:33;;;;;;;29.45;18.00;;;;;;;;;;6138294;23;20033;-82
2024/01/07 03:19:01;;;;;;;30.80;17.25;;;;;;;;;;6133578;23;20032;-83
2024/01/07 03:21:28;;;;;;;30.17;17.98;;;;;;;;;;6127622;23;20044;-82
2024/01/07 03:23:54;;;;;;;31.90;18.88;;;;;;;;;;6137177;23;20060;-82
2024/01/07 03:26:21;;;;;;;35.92;18.67;;;;;;;;;;6146344;23;20069;-81
2024/01/07 03:28:48;;;;;;;32.97;19.42;;;;;;;;;;6131828;23;20076;-82
2024/01/07 03:31:15;;;;;;;35.00;18.63;;;;;;;;;;6132060;23;20022;-83
2024/01/07 03:33:43;;;;;;;33.53;18.73;;;;;;;;;;6140215;23;20041;-84
2024/01/07 03:36:10;;;;;;;35.65;19.15;;;;;;;;;;6138098;23;20026;-82
2024/01/07 03:38:37;;;;;;;34.03;18.58;;;;;;;;;;6128705;23;20050;-83
2024/01/07 03:41:03;;;;;;;37.30;19.88;;;;;;;;;;6141999;23;20032;-84
2024/01/07 03:43:30;;;;;;;32.83;19.17;;;;;;;;;;6139317;23;20033;-83
2024/01/07 03:45:56;;;;;;;37.40;20.17;;;;;;;;;;6140357;23;20049;-83
2024/01/07 03:48:23;;;;;;;36.00;19.23;;;;;;;;;;6139632;23;20037;-84
2024/01/07 03:50:51;;;;;;;34.75;19.25;;;;;;;;;;6140330;23;20025;-83
2024/01/07 03:53:17;;;;;;;37.10;19.95;;;;;;;;;;6140381;23;20088;-83
2024/01/07 03:55:44;;;;;;;38.97;20.45;;;;;;;;;;6138811;23;20029;-84
2024/01/07 03:58:10;;;;;;;42.05;21.20;;;;;;;;;;6138168;23;20101;-82
2024/01/07 04:00:37;;;;;;;39.15;20.77;;;;;;;;;;6138027;23;20033;-82
2024/01/07 04:03:03;;;;;;;40.25;20.85;;;;;;;;;;6138456;23;20022;-82
2024/01/07 04:05:30;;;;;;;36.25;19.27;;;;;;;;;;6139020;23;20025;-82
2024/01/07 04:07:57;;;;;;;39.97;20.50;;;;;;;;;;6138799;23;20014;-82
2024/01/07 04:10:24;;;;;;;39.17;20.10;;;;;;;;;;6138234;23;20026;-82
2024/01/07 04:12:50;;;;;;;40.80;19.80;;;;;;;;;;6139535;23;20022;-83
2024/01/07 04:15:17;;;;;;;43.58;20.52;;;;;;;;;;6139394;23;20026;-83
2024/01/07 04:17:43;;;;;;;36.53;19.77;;;;;;;;;;6140114;23;20388;-84
2024/01/07 04:20:13;;;;;;;40.45;20.77;;;;;;;;;;6136270;23;20122;-84
2024/01/07 04:22:39;;;;;;;47.60;22.55;;;;;;;;;;6139287;23;20347;-84
2024/01/07 04:25:08;;;;;;;46.47;24.08;;;;;;;;;;6139347;23;20030;-84
2024/01/07 04:27:34;;;;;;;43.70;21.83;;;;;;;;;;6139217;23;20022;-84
2024/01/07 04:30:01;;;;;;;46.05;23.70;;;;;;;;;;6139489;23;20442;-83
2024/01/07 04:32:27;;;;;;;46.13;23.95;;;;;;;;;;6141766;23;20037;-82
2024/01/07 04:34:54;;;;;;;46.58;22.63;;;;;;;;;;6143071;23;20096;-82
2024/01/07 04:37:20;;;;;;;40.95;21.73;;;;;;;;;;6148434;23;20022;-81
2024/01/07 04:39:47;;;;;;;48.75;22.95;;;;;;;;;;6149400;23;20017;-84
2024/01/07 04:42:15;;;;;;;38.83;20.45;;;;;;;;;;6149565;23;20054;-84
2024/01/07 04:44:42;;;;;;;42.92;22.13;;;;;;;;;;6139009;23;20029;-84
2024/01/07 04:47:23;;;;;;;43.55;23.45;;;;;;;;;;6138346;23;20025;-83
2024/01/07 04:49:50;;;;;;;39.63;20.95;;;;;;;;;;6139704;23;20102;-84
2024/01/07 04:52:16;;;;;;;42.92;21.60;;;;;;;;;;6139570;23;20052;-83
2024/01/07 04:54:43;;;;;;;36.25;20.65;;;;;;;;;;6140632;23;20022;-84
2024/01/07 04:57:09;;;;;;;37.42;19.55;;;;;;;;;;6140802;23;20025;-84
2024/01/07 04:59:37;;;;;;;32.92;17.83;;;;;;;;;;6147000;23;20599;-84
2024/01/07 05:02:04;;;;;;;33.38;18.15;;;;;;;;;;6148217;23;20026;-84
2024/01/07 05:04:30;;;;;;;37.10;19.17;;;;;;;;;;6147747;23;20018;-84
2024/01/07 05:06:56;;;;;;;35.70;19.42;;;;;;;;;;6149038;23;20018;-84
2024/01/07 05:09:23;;;;;;;38.05;21.50;;;;;;;;;;6150463;23;20025;-84
2024/01/07 05:11:49;;;;;;;37.15;19.70;;;;;;;;;;6146276;23;20033;-83
2024/01/07 05:14:15;;;;;;;35.85;19.85;;;;;;;;;;6134642;23;20060;-83
2024/01/07 05:16:43;;;;;;;39.35;20.90;;;;;;;;;;6133225;23;20053;-82
2024/01/07 05:19:09;;;;;;;37.75;20.38;;;;;;;;;;6133207;23;20022;-82
2024/01/07 05:21:36;;;;;;;39.10;22.02;;;;;;;;;;6132019;23;20104;-82
2024/01/07 05:24:02;;;;;;;40.47;22.13;;;;;;;;;;6130214;23;20022;-83
2024/01/07 05:26:29;;;;;;;40.10;22.30;;;;;;;;;;6133561;23;20338;-83
2024/01/07 05:28:55;;;;;;;42.15;22.73;;;;;;;;;;6132762;23;20050;-83
2024/01/07 05:31:21;;;;;;;42.40;23.08;;;;;;;;;;6132709;23;20049;-83
2024/01/07 05:33:49;;;;;;;43.30;23.52;;;;;;;;;;6132232;23;20084;-83
2024/01/07 05:36:16;;;;;;;49.75;24.20;;;;;;;;;;6132731;23;20030;-82
2024/01/07 05:38:42;;;;;;;44.75;23.38;;;;;;;;;;6132133;23;20098;-83
2024/01/07 05:41:09;;;;;;;45.83;23.00;;;;;;;;;;6132425;23;20053;-83
2024/01/07 05:43:36;;;;;;;48.97;25.27;;;;;;;;;;6131517;23;20029;-84
2024/01/07 05:46:03;;;;;;;49.85;25.05;;;;;;;;;;6132722;23;20459;-84
2024/01/07 05:48:29;;;;;;;47.78;22.77;;;;;;;;;;6133387;23;20022;-83
2024/01/07 05:50:57;;;;;;;41.72;22.98;;;;;;;;;;6133108;23;20057;-83
2024/01/07 05:53:24;;;;;;;45.55;23.80;;;;;;;;;;6131532;23;20038;-82
2024/01/07 05:55:50;;;;;;;46.13;25.05;;;;;;;;;;6129302;23;20045;-83
2024/01/07 05:58:16;;;;;;;42.25;23.50;;;;;;;;;;6138418;23;20033;-82
2024/01/07 06:00:43;;;;;;;47.55;24.17;;;;;;;;;;6133322;23;20064;-83
2024/01/07 06:03:11;;;;;;;45.08;24.65;;;;;;;;;;6134371;23;20026;-82
2024/01/07 06:05:38;;;;;;;40.60;21.67;;;;;;;;;;6138716;23;20052;-81
2024/01/07 06:08:07;;;;;;;44.53;24.13;;;;;;;;;;6138361;23;20026;-83
2024/01/07 06:10:33;;;;;;;40.95;22.17;;;;;;;;;;6136910;23;20026;-84
2024/01/07 06:12:59;;;;;;;43.33;23.58;;;;;;;;;;6137743;23;20033;-84
2024/01/07 06:15:26;;;;;;;39.05;22.30;;;;;;;;;;6136088;23;20026;-84
2024/01/07 06:17:52;;;;;;;38.20;21.60;;;;;;;;;;6137699;23;20060;-85
2024/01/07 06:20:19;;;;;;;41.35;22.70;;;;;;;;;;6133357;23;20058;-86
2024/01/07 06:22:45;;;;;;;36.03;21.38;;;;;;;;;;6135887;23;20033;-86
2024/01/07 06:25:13;;;;;;;36.47;20.40;;;;;;;;;;6137670;23;20026;-84
2024/01/07 06:27:39;;;;;;;38.13;20.45;;;;;;;;;;6139909;23;20025;-84
2024/01/07 06:30:06;;;;;;;36.13;20.23;;;;;;;;;;6140869;23;20357;-83
2024/01/07 06:32:33;;;;;;;138.75;55.10;;;;;;;;;;6141410;23;20030;-84
2024/01/07 06:34:59;;;;;;;45.17;24.98;;;;;;;;;;6142461;23;20029;-83
2024/01/07 06:37:28;;;;;;;41.88;22.33;;;;;;;;;;6140077;23;20030;-83
2024/01/07 06:39:55;;;;;;;42.47;22.50;;;;;;;;;;6142174;23;20096;-84
2024/01/07 06:42:23;;;;;;;38.88;21.70;;;;;;;;;;6144617;23;20026;-83
2024/01/07 06:44:49;;;;;;;44.75;25.10;;;;;;;;;;6147285;23;20010;-84
2024/01/07 06:50:10;;;;;;;43.42;22.02;;;;;;;;;;6146316;23;20018;-83
2024/01/07 06:56:20;;;;;;;45.28;23.13;;;;;;;;;;6139074;23;20053;-83
2024/01/07 06:58:58;;;;;;;42.20;22.20;;;;;;;;;;6140330;23;20037;-83
2024/01/07 07:01:45;;;;;;;43.97;23.55;;;;;;;;;;6137885;23;20104;-83
2024/01/07 07:04:17;;;;;;;42.63;22.48;;;;;;;;;;6140090;23;20367;-84
2024/01/07 07:06:48;;;;;;;47.25;23.35;;;;;;;;;;6138822;23;20021;-84
2024/01/07 07:12:07;;;;;;;49.13;24.15;;;;;;;;;;6129705;23;20030;-84
2024/01/07 07:15:00;;;;;;;40.40;21.58;;;;;;;;;;6137867;23;20301;-83
2024/01/07 07:17:36;;;;;;;46.55;24.63;;;;;;;;;;6136901;23;20036;-83
2024/01/07 07:20:08;;;;;;;40.45;22.75;;;;;;;;;;6142895;23;20028;-83
2024/01/07 07:25:22;;;;;;;36.97;20.52;;;;;;;;;;6142116;23;20014;-84
2024/01/07 07:27:49;;;;;;;38.50;23.27;;;;;;;;;;6146134;23;20065;-83
2024/01/07 07:30:17;;;;;;;40.08;22.58;;;;;;;;;;6136300;23;20151;-83
2024/01/07 07:32:44;;;;;;;42.10;25.40;;;;;;;;;;6133129;23;20033;-83
2024/01/07 07:35:10;;;;;;;43.05;26.30;;;;;;;;;;6134278;23;20022;-83
2024/01/07 07:37:36;;;;;;;39.92;21.45;;;;;;;;;;6136647;23;20045;-83
2024/01/07 07:40:03;;;;;;;38.03;25.25;;;;;;;;;;6135194;23;20509;-84
2024/01/07 07:42:30;;;;;;;41.08;24.13;;;;;;;;;;6141415;23;20074;-84
2024/01/07 07:44:56;;;;;;;31.88;18.42;;;;;;;;;;6149655;23;20037;-84
2024/01/07 07:47:24;;;;;;;35.03;19.85;;;;;;;;;;6148793;23;20022;-83
2024/01/07 07:49:50;;;;;;;34.33;19.38;;;;;;;;;;6146892;23;20014;-82
2024/01/07 07:52:21;;;;;;;40.78;21.92;;;;;;;;;;6139285;23;20382;-83
2024/01/07 07:54:48;;;;;;;37.33;21.55;;;;;;;;;;6137139;23;20078;-82
2024/01/07 07:57:14;;;;;;;35.42;21.15;;;;;;;;;;6135041;23;20053;-83
2024/01/07 07:59:40;;;;;;;40.58;22.05;;;;;;;;;;6134012;23;20026;-83
2024/01/07 08:02:07;;;;;;;36.78;21.85;;;;;;;;;;6134704;23;20026;-83
2024/01/07 08:04:35;;;;;;;34.70;20.17;;;;;;;;;;6133060;23;20033;-83
2024/01/07 08:07:02;;;;;;;40.72;22.88;;;;;;;;;;6134543;23;20340;-83
2024/01/07 08:09:28;;;;;;;37.30;21.38;;;;;;;;;;6132000;23;20318;-83
2024/01/07 08:11:54;;;;;;;37.88;20.95;;;;;;;;;;6131442;23;20049;-83
2024/01/07 08:14:21;;;;;;;39.83;22.05;;;;;;;;;;6137674;23;20033;-83
2024/01/07 08:16:47;;;;;;;37.00;21.70;;;;;;;;;;6138601;23;20026;-84
2024/01/07 08:19:13;;;;;;;40.38;22.38;;;;;;;;;;6135512;23;20060;-84
2024/01/07 08:21:41;;;;;;;35.95;21.58;;;;;;;;;;6139771;23;20026;-83
2024/01/07 08:24:10;;;;;;;36.47;20.65;;;;;;;;;;6140540;23;20053;-83
2024/01/07 08:26:36;;;;;;;45.33;25.70;;;;;;;;;;6141974;23;20030;-84
2024/01/07 08:29:03;;;;;;;40.50;26.33;;;;;;;;;;6141836;23;20053;-84
2024/01/07 08:31:30;;;;;;;36.60;20.95;;;;;;;;;;6140609;23;20077;-83
2024/01/07 08:33:56;;;;;;;45.00;30.55;;;;;;;;;;6139737;23;20034;-83
2024/01/07 08:36:22;;;;;;;43.47;24.02;;;;;;;;;;6140395;23;20030;-84
2024/01/07 08:38:50;;;;;;;34.30;21.20;;;;;;;;;;6139004;23;20049;-83
2024/01/07 08:41:17;;;;;;;44.78;22.88;;;;;;;;;;6141924;23;20131;-83
2024/01/07 08:44:17;;;;;;;38.83;22.23;;;;;;;;;;6141095;23;20029;-84
2024/01/07 08:47:17;;;;;;;;;;;;;;;;;;;;;
2024/01/07 08:55:31;;;;;;;45.97;24.42;;;;;;;;;;6135895;23;20014;-83
2024/01/07 09:01:19;;;;;;;37.80;21.20;;;;;;;;;;6133089;23;20009;-82
2024/01/07 09:04:00;;;;;;;40.83;22.20;;;;;;;;;;6141543;23;20025;-83
2024/01/07 09:10:14;;;;;;;39.47;21.58;;;;;;;;;;6133302;23;20070;-83
2024/01/07 09:18:58;;;;;;;38.15;21.42;;;;;;;;;;6140555;23;20022;-83
2024/01/07 09:24:51;;;;;;;38.95;20.65;;;;;;;;;;6138343;23;20018;-82
2024/01/07 09:27:21;;;;;;;35.22;20.75;;;;;;;;;;6072137;23;20022;-83
2024/01/07 09:29:49;;;;;;;36.70;20.90;;;;;;;;;;6129821;23;20025;-83
2024/01/07 09:32:18;;;;;;;36.33;21.42;;;;;;;;;;6132058;23;20034;-83
2024/01/07 09:34:44;;;;;;;34.38;20.40;;;;;;;;;;6133129;23;20081;-83
2024/01/07 09:37:11;;;;;;;33.75;21.08;;;;;;;;;;6133647;23;20148;-84
2024/01/07 09:39:39;;;;;;;38.15;21.05;;;;;;;;;;6134965;23;20045;-84
2024/01/07 09:42:06;;;;;;;42.58;22.05;;;;;;;;;;6140216;23;20057;-84
2024/01/07 09:44:35;;;;;;;39.45;22.23;;;;;;;;;;6136010;23;20024;-84
2024/01/07 09:47:04;;;;;;;38.03;21.35;;;;;;;;;;6133963;23;20447;-84
2024/01/07 09:49:31;;;;;;;35.60;21.10;;;;;;;;;;6133402;23;20026;-84
2024/01/07 09:52:00;;;;;;;40.72;23.55;;;;;;;;;;6133934;23;20085;-85
2024/01/07 09:54:27;;;;;;;41.17;24.85;;;;;;;;;;6132698;23;20045;-84
2024/01/07 09:56:56;;;;;;;40.40;25.25;;;;;;;;;;6134068;23;20018;-84
2024/01/07 09:59:24;;;;;;;41.00;26.73;;;;;;;;;;6132716;23;20026;-86
2024/01/07 10:01:54;;;;;;;32.65;19.95;;;;;;;;;;6133719;23;20797;-87
2024/01/07 10:07:27;;;;;;;24.48;15.32;;;;;;;;;;6135034;23;20018;-87
2024/01/07 10:09:55;;;;;;;25.58;16.05;;;;;;;;;;6135862;23;20033;-86
2024/01/07 10:12:35;;;;;;;24.77;15.25;;;;;;;;;;6136587;23;20082;-86
2024/01/07 10:15:03;;;;;;;25.42;15.82;;;;;;;;;;6134363;23;20077;-86
2024/01/07 10:17:58;;;;;;;21.67;14.15;;;;;;;;;;6135147;23;20022;-86
2024/01/07 10:20:46;;;;;;;21.65;14.27;;;;;;;;;;6134050;23;20038;-84
2024/01/07 10:26:15;;;;;;;24.58;14.05;;;;;;;;;;6131544;23;20022;-85
2024/01/07 10:28:47;;;;;;;22.63;13.82;;;;;;;;;;6131400;23;20395;-87
2024/01/07 10:31:18;;;;;;;22.15;14.70;;;;;;;;;;6136546;23;20085;-85
2024/01/07 10:33:54;;;;;;;20.83;13.93;;;;;;;;;;6135058;23;20033;-86
2024/01/07 10:36:24;;;;;;;22.77;14.95;;;;;;;;;;6134935;23;20514;-85
2024/01/07 10:39:15;;;;;;;22.45;14.80;;;;;;;;;;6135641;23;20451;-86
2024/01/07 10:41:59;;;;;;;;;;;;;;;;;;;;;
2024/01/07 10:44:30;;;;;;;25.88;16.05;;;;;;;;;;6108706;23;20061;-87
2024/01/07 10:47:07;;;;;;;24.50;16.38;;;;;;;;;;6137210;23;20026;-88
2024/01/07 10:50:10;;;;;;;23.58;14.82;;;;;;;;;;6138111;23;20032;-85
2024/01/07 10:53:02;;;;;;;26.40;17.02;;;;;;;;;;6136456;23;20021;-86
2024/01/07 11:24:42;;;;;;;25.73;14.88;;;;;;;;;;5919660;24;20064;-84
2024/01/07 11:27:45;;;;;;;26.55;15.55;;;;;;;;;;6041730;23;20059;-85
2024/01/07 11:56:16;;;;;;;25.50;16.27;;;;;;;;;;6093636;22;1942841;-85
2024/01/07 11:58:51;;;;;;;21.40;12.48;;;;;;;;;;6168143;23;20021;-82
2024/01/07 12:01:22;;;;;;;24.50;15.68;;;;;;;;;;6174204;23;20048;-86
2024/01/07 12:04:03;;;;;;;24.00;14.63;;;;;;;;;;6177215;23;20018;-85
2024/01/07 12:06:39;;;;;;;23.00;14.20;;;;;;;;;;6154623;23;20085;-85
2024/01/07 12:09:10;;;;;;;22.50;13.52;;;;;;;;;;6147034;23;20032;-85
2024/01/07 12:12:04;;;;;;;18.80;12.23;;;;;;;;;;6141621;23;20018;-84
2024/01/07 12:17:38;;;;;;;23.25;14.32;;;;;;;;;;6139708;23;20025;-85
2024/01/07 12:20:08;;;;;;;19.65;12.32;;;;;;;;;;6140100;23;20387;-85
2024/01/07 12:22:38;;;;;;;24.23;13.57;;;;;;;;;;6140938;23;20037;-84
2024/01/07 12:28:06;;;;;;;21.02;13.38;;;;;;;;;;6254367;22;20016;-83
2024/01/07 12:31:13;;;;;;;23.40;13.52;;;;;;;;;;6252252;23;20020;-83
2024/01/07 12:33:55;;;;;;;25.40;13.98;;;;;;;;;;6257328;23;20080;-84
2024/01/07 12:36:41;;;;;;;25.23;14.48;;;;;;;;;;6224783;23;20025;-84
2024/01/07 12:42:23;;;;;;;22.27;12.68;;;;;;;;;;6214562;23;20016;-85
2024/01/07 12:45:11;;;;;;;20.77;11.88;;;;;;;;;;6231885;23;20043;-83
2024/01/07 12:48:15;;;;;;;20.33;12.52;;;;;;;;;;6234887;23;20020;-84
2024/01/07 12:50:54;;;;;;;20.20;12.25;;;;;;;;;;6230326;23;20017;-85
2024/01/07 12:55:57;;;;;;;19.75;11.35;;;;;;;;;;6217377;23;20031;-84
2024/01/07 12:59:07;;;;;;;15.82;9.98;;;;;;;;;;6223574;23;20016;-84
2024/01/07 13:02:00;;;;;;;16.40;10.80;;;;;;;;;;6223636;23;20100;-81
2024/01/07 13:04:53;;;;;;;21.65;12.02;;;;;;;;;;6209927;22;20021;-83
2024/01/07 13:10:18;;;;;;;22.10;10.95;;;;;;;;;;6197732;23;20017;-84
2024/01/07 13:13:09;;;;;;;;;;;;;;;;;;;;;
2024/01/07 13:16:01;;;;;;;17.35;10.23;;;;;;;;;;6228126;23;20020;-83
2024/01/07 13:18:54;;;;;;;16.10;9.98;;;;;;;;;;6225734;23;20039;-85
2024/01/07 13:21:53;;;;;;;14.40;9.85;;;;;;;;;;6212672;22;20016;-85
2024/01/07 13:24:50;;;;;;;;;;;;;;;;;;;;;
2024/01/07 13:35:26;;;;;;;18.13;10.30;;;;;;;;;;6219990;23;20016;-81
2024/01/07 13:37:55;;;;;;;15.13;8.80;;;;;;;;;;6217717;23;20031;-81
2024/01/07 13:40:22;;;;;;;13.55;9.32;;;;;;;;;;6189453;23;20025;-81
2024/01/07 13:42:50;;;;;;;15.70;10.13;;;;;;;;;;6190290;23;20041;-80
2024/01/07 13:45:19;;;;;;;16.17;10.52;;;;;;;;;;6189167;23;20025;-79
2024/01/07 13:47:46;;;;;;;14.27;9.88;;;;;;;;;;6189398;23;20021;-79
2024/01/07 13:50:13;;;;;;;15.95;10.10;;;;;;;;;;6189544;23;20075;-78
2024/01/07 13:55:35;;;;;;;14.30;9.27;;;;;;;;;;6145331;23;20052;-80
2024/01/07 13:58:02;;;;;;;14.75;8.50;;;;;;;;;;6190380;23;20060;-81
2024/01/07 14:00:59;;;;;;;14.35;8.98;;;;;;;;;;6188753;23;20114;-79
2024/01/07 14:03:25;;;;;;;13.15;9.77;;;;;;;;;;6190531;23;20036;-80
2024/01/07 14:05:53;;;;;;;12.32;9.00;;;;;;;;;;6189423;23;20056;-81
2024/01/07 14:08:30;;;;;;;12.13;7.55;;;;;;;;;;6189619;23;20031;-79
2024/01/07 14:11:21;;;;;;;14.15;9.05;;;;;;;;;;6190299;23;20025;-80
2024/01/07 14:13:48;;;;;;;16.52;9.65;;;;;;;;;;6190452;23;20025;-83
2024/01/07 14:16:17;;;;;;;15.43;10.48;;;;;;;;;;6192165;23;20029;-81
2024/01/07 14:18:43;;;;;;;15.80;10.23;;;;;;;;;;6189178;23;20084;-79
2024/01/07 14:21:24;;;;;;;14.27;9.27;;;;;;;;;;6192708;23;20031;-81
2024/01/07 14:23:57;;;;;;;13.38;9.23;;;;;;;;;;6195545;23;20025;-81
2024/01/07 14:26:28;;;;;;;14.95;9.02;;;;;;;;;;6194741;23;20272;-81
2024/01/07 14:28:54;;;;;;;14.65;8.88;;;;;;;;;;6192486;23;20025;-81
2024/01/07 14:31:21;;;;;;;13.93;9.90;;;;;;;;;;6194058;23;20028;-79
2024/01/07 14:34:20;;;;;;;14.48;8.82;;;;;;;;;;6190057;23;20017;-81
2024/01/07 14:36:48;;;;;;;19.80;10.02;;;;;;;;;;6191254;23;20025;-80
2024/01/07 14:39:15;;;;;;;11.77;8.05;;;;;;;;;;6190132;23;20029;-80
2024/01/07 14:41:43;;;;;;;13.85;8.43;;;;;;;;;;6190223;23;20024;-80
2024/01/07 14:44:10;;;;;;;12.38;8.20;;;;;;;;;;6191879;23;20073;-81
2024/01/07 14:46:36;;;;;;;13.32;8.18;;;;;;;;;;6192479;23;20055;-82
2024/01/07 14:49:04;;;;;;;14.45;9.27;;;;;;;;;;6191810;23;20095;-81
2024/01/07 14:51:30;;;;;;;15.40;8.63;;;;;;;;;;6193864;23;20025;-79
2024/01/07 14:54:11;;;;;;;12.57;7.95;;;;;;;;;;6195810;23;20025;-79
2024/01/07 14:56:44;;;;;;;11.25;7.15;;;;;;;;;;6193691;23;20398;-81
2024/01/07 14:59:30;;;;;;;11.05;7.53;;;;;;;;;;6194511;23;20469;-83
2024/01/07 15:02:04;;;;;;;10.32;6.78;;;;;;;;;;6191359;23;20224;-78
2024/01/07 15:04:50;;;;;;;13.57;7.72;;;;;;;;;;6191263;23;20017;-81
2024/01/07 15:07:46;;;;;;;12.02;7.10;;;;;;;;;;6191676;23;20051;-81
2024/01/07 15:13:30;;;;;;;10.38;7.20;;;;;;;;;;6190986;23;20019;-82
2024/01/07 15:15:57;;;;;;;10.35;6.93;;;;;;;;;;6190474;23;20100;-79
2024/01/07 15:18:28;;;;;;;9.38;6.43;;;;;;;;;;6190541;23;20027;-81
2024/01/07 15:20:54;;;;;;;9.98;6.43;;;;;;;;;;6190627;23;20021;-81
2024/01/07 15:23:21;;;;;;;12.23;7.78;;;;;;;;;;6192102;23;20393;-80
2024/01/07 15:25:51;;;;;;;12.75;7.72;;;;;;;;;;6192356;23;20025;-80
2024/01/07 15:28:17;;;;;;;10.30;7.50;;;;;;;;;;6189213;23;20079;-82
2024/01/07 15:30:47;;;;;;;10.35;7.57;;;;;;;;;;6189984;23;20095;-82
2024/01/07 15:33:22;;;;;;;10.10;6.97;;;;;;;;;;6189688;23;20021;-81
2024/01/07 15:35:50;;;;;;;10.73;6.30;;;;;;;;;;6191167;23;20339;-81
2024/01/07 15:38:17;;;;;;;11.18;8.00;;;;;;;;;;6189069;23;20099;-80
2024/01/07 15:40:44;;;;;;;11.85;5.95;;;;;;;;;;6189828;23;20132;-81
2024/01/07 15:43:48;;;;;;;9.63;5.60;;;;;;;;;;6190259;23;20458;-83
2024/01/07 15:49:02;;;;;;;7.45;5.60;;;;;;;;;;6178584;23;20025;-80
2024/01/07 15:51:30;;;;;;;8.48;6.53;;;;;;;;;;6190322;23;20021;-81
2024/01/07 15:53:59;;;;;;;8.73;5.85;;;;;;;;;;6190760;23;20025;-81
2024/01/07 15:56:33;;;;;;;10.48;8.05;;;;;;;;;;6190227;23;20025;-82
2024/01/07 16:01:40;;;;;;;7.60;5.82;;;;;;;;;;6184290;23;20489;-80
2024/01/07 16:04:06;;;;;;;6.32;4.97;;;;;;;;;;6189745;23;20021;-80
2024/01/07 16:06:49;;;;;;;8.52;5.65;;;;;;;;;;6190079;23;20598;-81
2024/01/07 16:09:18;;;;;;;;;;;;;;;;;;6190779;23;20366;-82
2024/01/07 16:11:45;;;;;;;8.57;5.68;;;;;;;;;;6190776;23;20260;-82
2024/01/07 16:14:11;;;;;;;7.85;5.75;;;;;;;;;;6188932;23;20028;-81
2024/01/07 16:16:41;;;;;;;9.57;6.40;;;;;;;;;;6189802;23;20025;-81
2024/01/07 16:19:10;;;;;;;8.43;5.65;;;;;;;;;;6191677;23;20029;-81
2024/01/07 16:21:38;;;;;;;12.00;8.82;;;;;;;;;;6190987;23;20072;-82
2024/01/07 16:24:12;;;;;;;7.82;5.25;;;;;;;;;;6192114;23;20084;-83
2024/01/07 16:29:24;;;;;;;11.18;7.72;;;;;;;;;;6186226;23;20024;-81
2024/01/07 16:31:51;;;;;;;9.43;6.30;;;;;;;;;;6192664;23;20025;-81
2024/01/07 16:34:18;;;;;;;8.48;5.57;;;;;;;;;;6193242;23;20068;-82
2024/01/07 16:36:46;;;;;;;12.23;7.15;;;;;;;;;;6193920;23;20128;-82
2024/01/07 16:39:16;;;;;;;11.10;7.40;;;;;;;;;;6192911;23;20037;-83
2024/01/07 16:41:42;;;;;;;13.65;7.97;;;;;;;;;;6193743;23;20025;-82
2024/01/07 16:44:09;;;;;;;8.15;6.05;;;;;;;;;;6194129;23;20020;-83
2024/01/07 16:46:40;;;;;;;8.80;5.88;;;;;;;;;;6192909;23;20496;-83
2024/01/07 16:49:10;;;;;;;10.10;5.80;;;;;;;;;;6192058;23;20021;-83
2024/01/07 16:51:36;;;;;;;10.23;6.22;;;;;;;;;;6192391;23;20025;-82
2024/01/07 16:54:11;;;;;;;10.35;6.50;;;;;;;;;;6193569;23;20020;-81